Time;durP1;ratioP1;P1;durP2;ratioP2;P2;SDS_P1;SDS_P2;PMS_P1;PMS_P2;Temp;Humidity;BMP_temperature;BMP_pressure;BME280_temperature;BME280_humidity;BME280_pressure;Samples;Min_cycle;Max_cycle;Signal;HPM_P1;HPM_P2
2022/11/28 00:01:42;;;;;;;14.47;8.70;;;5.80;86.70;;;9.33;50.63;97442.19;5002585;28;20046;-55
2022/11/28 00:04:11;;;;;;;14.97;7.33;;;5.80;86.30;;;9.36;50.92;97439.19;5003203;28;20072;-53
2022/11/28 00:06:44;;;;;;;11.50;8.63;;;5.90;86.30;;;9.37;50.74;97428.41;5003397;28;20046;-52
2022/11/28 00:09:13;;;;;;;12.63;8.43;;;5.90;86.20;;;9.36;50.59;97426.75;5003718;28;20042;-53
2022/11/28 00:11:43;;;;;;;12.13;7.63;;;5.90;86.00;;;9.35;50.64;97424.25;5002322;28;20072;-52
2022/11/28 00:14:12;;;;;;;9.37;6.93;;;5.90;86.10;;;9.35;50.87;97430.41;5000180;28;20130;-54
2022/11/28 00:16:40;;;;;;;11.23;7.53;;;5.90;86.20;;;9.34;50.62;97422.59;5002173;28;20072;-56
2022/11/28 00:19:10;;;;;;;11.23;7.47;;;5.90;85.80;;;9.32;50.92;97430.69;5002097;28;20058;-55
2022/11/28 00:21:39;;;;;;;13.77;8.57;;;5.80;86.10;;;9.30;50.64;97427.38;5002178;28;20054;-50
2022/11/28 00:24:08;;;;;;;13.03;8.27;;;5.80;85.80;;;9.29;50.76;97428.38;5002937;28;20060;-51
2022/11/28 00:26:41;;;;;;;11.73;8.23;;;5.80;85.90;;;9.26;50.93;97424.19;5003158;28;20348;-56
2022/11/28 00:29:10;;;;;;;11.87;8.23;;;5.80;85.70;;;9.26;50.66;97418.06;5002088;28;20046;-53
2022/11/28 00:31:41;;;;;;;11.60;7.60;;;5.80;85.70;;;9.27;50.86;97420.56;5002355;28;20160;-53
2022/11/28 00:34:14;;;;;;;11.90;8.03;;;5.90;85.70;;;9.30;50.82;97415.94;5001654;28;20046;-51
2022/11/28 00:36:46;;;;;;;11.10;7.10;;;5.90;85.40;;;9.31;50.57;97420.25;5002920;28;20050;-52
2022/11/28 00:39:15;;;;;;;10.13;6.97;;;5.90;85.20;;;9.30;50.73;97411.44;5001510;28;20056;-55
2022/11/28 00:41:44;;;;;;;13.27;7.20;;;5.90;84.90;;;9.32;50.57;97405.97;5001806;28;20268;-52
2022/11/28 00:44:13;;;;;;;11.53;7.80;;;6.00;84.00;;;9.23;50.62;97407.78;5002443;28;20258;-52
2022/11/28 00:46:41;;;;;;;14.10;9.63;;;6.00;83.00;;;9.22;50.59;97401.59;5001935;28;20043;-54
2022/11/28 00:49:09;;;;;;;17.10;10.17;;;6.00;83.40;;;9.19;50.28;97393.13;5001807;28;20049;-52
2022/11/28 00:51:38;;;;;;;14.50;10.03;;;6.00;83.00;;;9.20;50.47;97392.97;5002520;28;20052;-54
2022/11/28 00:54:06;;;;;;;12.27;9.00;;;6.00;82.80;;;9.22;50.17;97393.63;5001289;28;20046;-54
2022/11/28 00:56:37;;;;;;;12.43;7.97;;;6.00;82.90;;;9.22;50.40;97390.16;5002774;28;20370;-53
2022/11/28 00:59:06;;;;;;;11.23;7.30;;;6.00;82.80;;;9.22;50.59;97398.13;5002910;28;20053;-55
2022/11/28 01:01:40;;;;;;;12.13;7.70;;;5.90;83.20;;;9.22;50.31;97395.47;5001363;28;20367;-54
2022/11/28 01:04:11;;;;;;;;;;;5.90;83.50;;;9.23;50.39;97386.53;5000367;28;20050;-52
2022/11/28 01:06:47;;;;;;;13.77;7.67;;;5.80;83.90;;;9.22;50.48;97383.00;5002605;28;19918;-54
2022/11/28 01:09:21;;;;;;;12.63;7.80;;;5.70;84.50;;;9.16;50.42;97375.69;5001678;28;20050;-54
2022/11/28 01:11:52;;;;;;;12.20;8.63;;;5.70;85.30;;;9.17;50.85;97369.41;5001817;28;20058;-54
2022/11/28 01:14:25;;;;;;;11.10;8.47;;;5.70;85.60;;;9.16;51.02;97370.38;5000358;28;20042;-52
2022/11/28 01:16:53;;;;;;;10.73;7.27;;;5.70;85.90;;;9.16;50.90;97367.72;5001472;28;20042;-54
2022/11/28 01:19:21;;;;;;;12.80;8.83;;;5.70;87.00;;;9.17;50.78;97357.91;5001323;28;20043;-53
2022/11/28 01:21:49;;;;;;;10.47;7.07;;;5.70;86.30;;;9.18;51.01;97362.25;5017561;28;20042;-53
2022/11/28 01:24:17;;;;;;;9.00;6.57;;;5.70;86.10;;;9.16;50.71;97356.28;5001001;28;20050;-53
2022/11/28 01:26:45;;;;;;;10.63;7.43;;;5.70;86.30;;;9.15;50.87;97354.59;5002612;28;20051;-50
2022/11/28 01:29:13;;;;;;;10.50;7.30;;;5.70;86.40;;;9.15;50.96;97351.94;5001728;28;20050;-54
2022/11/28 01:31:41;;;;;;;10.57;7.33;;;5.60;87.00;;;9.14;51.08;97350.28;4989034;28;20050;-53
2022/11/28 01:34:09;;;;;;;12.03;7.80;;;5.70;87.30;;;9.14;51.05;97360.91;5005894;28;20056;-54
2022/11/28 01:36:36;;;;;;;10.40;7.93;;;5.70;87.10;;;9.13;51.09;97367.19;5006594;28;20065;-55
2022/11/28 01:39:05;;;;;;;11.07;7.57;;;5.60;87.20;;;9.11;51.16;97369.19;5006236;28;20075;-55
2022/11/28 01:41:33;;;;;;;12.07;8.10;;;5.60;87.30;;;9.11;50.99;97370.03;5005190;28;20240;-51
2022/11/28 01:44:26;;;;;;;12.73;10.00;;;5.60;87.30;;;9.12;51.05;97373.50;5005556;28;20048;-52
2022/11/28 01:46:55;;;;;;;22.93;11.23;;;5.60;87.30;;;9.12;51.03;97365.53;5005962;28;20236;-53
2022/11/28 01:49:32;;;;;;;12.70;8.30;;;5.60;87.50;;;9.12;51.22;97373.50;5004794;28;20042;-52
2022/11/28 01:52:11;;;;;;;11.73;7.20;;;5.60;87.20;;;9.10;51.10;97364.88;5004861;28;20046;-55
2022/11/28 01:54:43;;;;;;;29.10;16.57;;;5.60;87.50;;;9.11;51.10;97359.41;5005657;28;20054;-53
2022/11/28 01:57:18;;;;;;;38.67;22.33;;;5.70;87.40;;;9.12;51.21;97363.72;5004850;28;20244;-54
2022/11/28 02:00:12;;;;;;;33.80;17.10;;;5.70;87.00;;;9.11;51.10;97343.47;5004893;28;20046;-52
2022/11/28 02:03:05;;;;;;;21.20;12.97;;;5.80;86.60;;;9.10;51.13;97347.09;5010459;28;20040;-53
2022/11/28 02:05:33;;;;;;;11.97;7.60;;;5.70;86.60;;;9.12;51.01;97345.13;5004220;28;20267;-53
2022/11/28 02:08:02;;;;;;;9.83;7.33;;;5.70;87.20;;;9.10;51.30;97339.13;5005746;28;20042;-50
2022/11/28 02:10:51;;;;;;;11.50;7.43;;;5.70;87.30;;;9.11;51.15;97324.03;5004476;28;20054;-52
2022/11/28 02:13:40;;;;;;;7.83;6.03;;;5.60;87.40;;;9.11;51.26;97322.22;5020507;28;20064;-55
2022/11/28 02:16:37;;;;;;;13.90;7.07;;;5.70;87.50;;;9.12;51.30;97315.09;5004529;28;20056;-54
2022/11/28 02:19:30;;;;;;;9.20;7.40;;;5.70;87.40;;;9.11;51.42;97300.13;5004581;28;20054;-52
2022/11/28 02:22:15;;;;;;;11.00;6.80;;;5.70;87.20;;;9.14;51.46;97294.50;5005410;28;20333;-53
2022/11/28 02:25:00;;;;;;;9.03;6.43;;;5.70;87.40;;;9.15;51.72;97291.69;5004016;28;20042;-51
2022/11/28 02:27:59;;;;;;;11.47;6.50;;;5.70;87.10;;;9.14;51.20;97278.56;5004278;28;20052;-52
2022/11/28 02:30:55;;;;;;;9.27;6.37;;;5.70;87.30;;;9.12;51.24;97283.22;5005509;28;20248;-54
2022/11/28 02:33:42;;;;;;;11.73;6.83;;;5.60;87.20;;;9.05;51.13;97306.91;5005145;28;20050;-53
2022/11/28 02:36:28;;;;;;;9.57;6.73;;;5.60;87.80;;;9.06;51.10;97300.63;5004313;28;20047;-52
2022/11/28 02:39:08;;;;;;;11.23;6.93;;;5.50;87.40;;;9.04;51.13;97303.44;5005204;28;20046;-52
2022/11/28 02:41:57;;;;;;;9.50;6.37;;;5.60;87.10;;;9.06;51.01;97313.91;5004578;28;20045;-52
2022/11/28 02:44:42;;;;;;;9.83;6.87;;;5.60;87.00;;;9.08;51.18;97319.88;5003903;28;20046;-50
2022/11/28 02:47:22;;;;;;;11.67;7.03;;;5.60;87.00;;;9.11;51.16;97319.56;5004120;28;20347;-54
2022/11/28 02:50:07;;;;;;;9.23;6.40;;;5.70;87.00;;;9.12;51.14;97292.00;5003638;28;20042;-55
2022/11/28 02:52:44;;;;;;;7.30;5.23;;;5.70;86.90;;;9.15;50.95;97267.81;5004645;28;20061;-54
2022/11/28 02:55:15;;;;;;;8.67;6.47;;;5.80;86.60;;;9.17;51.22;97272.94;5003352;28;20156;-55
2022/11/28 02:57:50;;;;;;;9.50;7.10;;;5.80;86.10;;;9.18;51.02;97264.81;5003471;28;20057;-55
2022/11/28 03:00:31;;;;;;;11.00;6.43;;;5.80;86.20;;;9.17;51.19;97257.84;5004631;28;20240;-51
2022/11/28 03:03:11;;;;;;;10.50;5.63;;;5.80;86.10;;;9.22;50.98;97287.38;5004724;28;20101;-55
2022/11/28 03:05:50;;;;;;;8.90;6.27;;;5.80;85.50;;;9.20;50.90;97272.63;5004161;28;20042;-54
2022/11/28 03:08:27;;;;;;;10.97;6.03;;;5.80;85.30;;;9.15;50.98;97265.16;5003428;28;20244;-53
2022/11/28 03:11:21;;;;;;;8.57;6.47;;;5.80;85.80;;;9.16;51.10;97272.09;5005068;28;20057;-53
2022/11/28 03:14:03;;;;;;;;;;;5.80;85.60;;;9.18;50.94;97272.78;5004556;28;20048;-55
2022/11/28 03:17:17;;;;;;;8.73;6.07;;;5.80;84.60;;;9.15;50.72;97278.41;5002005;28;19943;-54
2022/11/28 03:20:05;;;;;;;10.80;7.43;;;5.70;85.10;;;9.17;50.80;97273.78;4963522;29;20055;-55
2022/11/28 03:22:56;;;;;;;8.93;6.23;;;5.70;85.70;;;9.15;50.64;97280.22;5001660;28;20046;-56
2022/11/28 03:25:46;;;;;;;8.07;6.20;;;5.70;85.80;;;9.16;51.06;97281.91;4997820;28;20251;-52
2022/11/28 03:28:44;;;;;;;9.17;6.03;;;5.70;85.40;;;9.03;51.04;97271.72;5003770;28;20058;-54
2022/11/28 03:31:19;;;;;;;9.77;6.77;;;5.60;86.30;;;9.03;50.97;97285.00;5003113;28;20048;-55
2022/11/28 03:33:52;;;;;;;10.33;7.07;;;5.50;86.40;;;9.03;51.24;97279.69;5003032;28;20058;-55
2022/11/28 03:36:49;;;;;;;9.52;6.22;;;5.60;86.90;;;9.06;51.00;97252.81;5003232;28;20495;-55
2022/11/28 03:39:22;;;;;;;11.73;6.40;;;5.60;87.00;;;9.12;51.07;97235.41;5003180;28;20049;-54
2022/11/28 03:42:01;;;;;;;10.95;6.60;;;5.70;86.90;;;9.14;51.18;97255.50;5003093;28;20054;-54
2022/11/28 03:45:03;;;;;;;8.67;6.13;;;5.70;87.00;;;9.12;51.17;97269.94;5002477;28;20043;-50
2022/11/28 03:47:39;;;;;;;11.33;6.77;;;5.70;86.20;;;9.13;50.79;97253.84;5003888;28;20046;-53
2022/11/28 03:50:24;;;;;;;10.07;6.17;;;5.60;86.50;;;9.11;50.94;97257.66;5002760;28;20050;-52
2022/11/28 03:53:01;;;;;;;10.00;6.10;;;5.60;86.50;;;9.11;50.88;97247.03;5001724;28;20118;-53
2022/11/28 03:56:12;;;;;;;8.97;6.60;;;5.60;86.80;;;9.12;51.04;97249.53;5002156;28;20073;-54
2022/11/28 03:59:02;;;;;;;9.73;7.30;;;5.70;86.20;;;9.12;51.03;97261.97;4995215;28;20058;-53
2022/11/28 04:02:12;;;;;;;10.03;8.00;;;5.60;86.70;;;9.09;51.03;97260.44;5002220;28;20064;-51
2022/11/28 04:04:51;;;;;;;11.17;7.00;;;5.60;86.70;;;9.10;51.16;97261.31;4999577;28;20046;-53
2022/11/28 04:07:50;;;;;;;11.77;7.53;;;5.60;87.00;;;9.05;51.40;97256.47;5018684;28;20050;-52
2022/11/28 04:10:47;;;;;;;12.17;6.30;;;5.60;87.20;;;9.01;51.33;97255.94;5002525;28;20060;-51
2022/11/28 04:13:35;;;;;;;14.13;6.77;;;5.60;87.10;;;9.05;51.22;97248.50;5002985;28;20090;-50
2022/11/28 04:16:47;;;;;;;9.40;5.80;;;5.60;87.10;;;9.03;51.14;97245.16;5001390;28;20105;-52
2022/11/28 04:19:32;;;;;;;9.63;7.07;;;5.60;86.50;;;9.07;51.02;97252.66;5002524;28;20248;-51
2022/11/28 04:22:17;;;;;;;10.43;6.50;;;5.60;86.80;;;9.07;51.08;97241.19;5003350;28;20261;-50
2022/11/28 04:24:54;;;;;;;9.03;6.53;;;5.60;86.30;;;9.09;51.10;97235.72;5002965;28;20340;-52
2022/11/28 04:27:32;;;;;;;10.47;6.67;;;5.60;86.30;;;9.11;51.19;97233.75;5002340;28;20202;-52
2022/11/28 04:30:03;;;;;;;9.07;6.53;;;5.70;86.60;;;9.12;50.98;97233.59;5001963;28;20087;-52
2022/11/28 04:32:35;;;;;;;9.20;6.70;;;5.70;86.60;;;9.11;51.13;97237.25;5002118;28;20337;-50
2022/11/28 04:35:11;;;;;;;10.50;5.77;;;5.70;86.90;;;9.12;51.42;97235.41;5001144;28;20050;-51
2022/11/28 04:37:43;;;;;;;9.93;7.03;;;5.70;87.10;;;9.12;51.30;97235.41;5002103;28;20042;-50
2022/11/28 04:40:12;;;;;;;9.77;7.03;;;5.70;86.90;;;9.13;51.44;97235.25;5003211;28;20062;-50
2022/11/28 04:42:50;;;;;;;9.73;6.43;;;5.70;86.60;;;9.12;51.31;97238.91;5001725;28;20341;-54
2022/11/28 04:45:36;;;;;;;9.43;6.00;;;5.70;86.40;;;9.05;51.19;97241.38;5002529;28;20050;-50
2022/11/28 04:48:06;;;;;;;10.03;6.83;;;5.60;86.10;;;9.02;51.16;97246.19;5001206;28;20050;-52
2022/11/28 04:50:58;;;;;;;10.53;7.60;;;5.50;86.60;;;8.83;51.23;97250.75;5001824;28;20053;-51
2022/11/28 04:53:58;;;;;;;9.43;6.47;;;5.30;86.70;;;8.77;51.48;97245.25;5003365;28;20324;-55
2022/11/28 04:57:05;;;;;;;11.30;7.53;;;5.20;88.10;;;8.83;51.54;97257.88;5002741;28;20056;-56
2022/11/28 04:59:33;;;;;;;10.67;6.40;;;5.30;88.20;;;8.82;51.26;97253.56;4996686;28;20062;-54
2022/11/28 05:02:03;;;;;;;9.57;5.90;;;5.30;87.80;;;8.85;51.37;97255.91;5001570;28;20072;-52
2022/11/28 05:04:35;;;;;;;8.77;6.00;;;5.30;88.00;;;8.85;51.36;97253.25;5001082;28;20043;-54
2022/11/28 05:07:06;;;;;;;9.40;6.43;;;5.40;88.00;;;8.84;51.55;97248.91;5001606;28;20056;-54
2022/11/28 05:09:35;;;;;;;9.23;6.07;;;5.40;88.30;;;8.81;51.59;97249.25;4985980;28;20061;-53
2022/11/28 05:12:03;;;;;;;9.67;5.83;;;5.30;88.50;;;8.78;51.66;97247.75;5001517;28;20245;-52
2022/11/28 05:14:31;;;;;;;8.57;6.53;;;5.30;89.00;;;8.63;52.04;97249.34;5000711;28;20049;-55
2022/11/28 05:16:59;;;;;;;8.97;6.50;;;5.10;89.00;;;8.56;52.19;97249.13;5002421;28;20043;-52
2022/11/28 05:19:27;;;;;;;10.77;7.60;;;5.00;90.70;;;8.56;51.88;97254.44;5002583;28;20042;-52
2022/11/28 05:21:54;;;;;;;8.20;6.43;;;5.00;91.70;;;8.57;51.99;97252.59;5002376;28;20257;-50
2022/11/28 05:24:22;;;;;;;9.83;6.83;;;5.00;92.40;;;8.57;51.97;97253.47;5002042;28;20269;-53
2022/11/28 05:26:57;;;;;;;9.50;7.47;;;5.00;92.70;;;8.42;52.28;97253.19;5001410;28;20336;-53
2022/11/28 05:29:25;;;;;;;9.40;7.13;;;4.80;93.10;;;8.35;52.73;97249.47;5002464;28;20213;-54
2022/11/28 05:31:52;;;;;;;16.50;6.97;;;4.80;95.30;;;8.40;53.00;97249.03;5002241;28;20050;-52
2022/11/28 05:34:21;;;;;;;10.53;8.70;;;4.80;95.60;;;8.45;52.48;97241.44;5001146;28;20228;-53
2022/11/28 05:36:48;;;;;;;13.97;9.87;;;4.90;96.00;;;8.50;52.53;97243.63;5001311;28;20046;-54
2022/11/28 05:39:16;;;;;;;11.73;8.00;;;5.00;95.50;;;8.53;52.77;97251.25;5002537;28;20050;-52
2022/11/28 05:41:44;;;;;;;7.73;6.40;;;5.00;95.40;;;8.57;52.52;97260.56;5002165;28;20060;-51
2022/11/28 05:44:12;;;;;;;10.20;6.70;;;5.10;95.20;;;8.57;52.56;97255.25;5000600;28;20045;-56
2022/11/28 05:46:40;;;;;;;13.47;7.70;;;5.10;94.90;;;8.59;52.70;97274.53;5002622;28;20046;-55
2022/11/28 05:49:08;;;;;;;13.17;7.10;;;5.10;94.20;;;8.60;52.50;97262.91;5000960;28;20046;-52
2022/11/28 05:51:35;;;;;;;12.47;7.37;;;5.10;94.50;;;8.61;52.35;97262.75;5001032;28;20042;-53
2022/11/28 05:54:05;;;;;;;10.03;6.93;;;5.10;94.10;;;8.60;52.37;97263.75;5002336;28;20046;-55
2022/11/28 05:56:33;;;;;;;10.60;6.80;;;5.10;93.80;;;8.59;52.25;97261.25;5002104;28;20042;-55
2022/11/28 05:59:08;;;;;;;13.50;7.80;;;5.10;94.10;;;8.59;52.21;97261.25;5002485;28;20248;-52
2022/11/28 06:01:36;;;;;;;9.27;7.27;;;5.10;94.30;;;8.57;52.40;97271.19;5002174;28;20056;-54
2022/11/28 06:04:04;;;;;;;10.27;7.10;;;5.00;94.30;;;8.54;52.42;97263.56;5000642;28;20046;-52
2022/11/28 06:06:35;;;;;;;11.73;7.30;;;5.00;94.80;;;8.56;52.59;97257.09;5000965;28;20159;-55
2022/11/28 06:09:05;;;;;;;8.90;6.60;;;5.10;94.60;;;8.60;52.63;97254.94;5002265;28;20046;-55
2022/11/28 06:11:34;;;;;;;10.87;7.13;;;5.10;94.40;;;8.60;52.41;97247.00;5000718;28;20182;-55
2022/11/28 06:14:02;;;;;;;15.93;8.87;;;5.10;93.90;;;8.61;52.31;97246.03;5002449;28;20344;-55
2022/11/28 06:16:30;;;;;;;16.07;8.03;;;5.10;93.90;;;8.61;52.54;97256.63;5001868;28;20306;-55
2022/11/28 06:19:02;;;;;;;12.53;8.27;;;5.20;94.20;;;8.64;52.46;97256.28;5005608;28;20058;-51
2022/11/28 06:21:31;;;;;;;14.03;7.57;;;5.20;94.00;;;8.66;52.39;97254.31;5005802;28;20054;-55
2022/11/28 06:23:59;;;;;;;10.97;8.13;;;5.20;93.90;;;8.67;52.35;97254.16;5004943;28;20049;-54
2022/11/28 06:26:28;;;;;;;19.67;11.80;;;5.20;93.70;;;8.70;52.50;97249.53;5005419;28;20053;-53
2022/11/28 06:28:56;;;;;;;17.40;10.87;;;5.30;93.90;;;8.63;52.54;97260.78;4987882;28;20051;-51
2022/11/28 06:31:28;;;;;;;24.63;10.13;;;5.20;93.70;;;8.63;52.62;97252.81;5005809;28;20046;-55
2022/11/28 06:33:57;;;;;;;13.17;7.80;;;5.10;94.30;;;8.62;52.68;97260.94;5004910;28;20046;-52
2022/11/28 06:36:26;;;;;;;12.43;8.23;;;5.10;94.50;;;8.60;52.70;97263.75;5005224;28;20050;-53
2022/11/28 06:38:54;;;;;;;9.80;7.80;;;5.10;94.00;;;8.61;52.46;97259.28;5004202;28;20050;-50
2022/11/28 06:41:22;;;;;;;14.83;8.27;;;5.10;94.30;;;8.61;52.55;97252.16;5005103;28;20053;-54
2022/11/28 06:43:49;;;;;;;13.73;9.10;;;5.10;94.90;;;8.64;52.75;97251.81;5004723;28;20048;-55
2022/11/28 06:46:20;;;;;;;11.67;8.33;;;5.20;95.10;;;8.69;52.81;97243.41;5003790;28;20221;-54
2022/11/28 06:48:50;;;;;;;15.97;8.17;;;5.30;95.10;;;8.72;52.75;97251.03;5004056;28;20048;-56
2022/11/28 06:51:19;;;;;;;10.90;7.60;;;5.30;94.40;;;8.75;52.56;97245.41;5004973;28;20332;-56
2022/11/28 06:53:47;;;;;;;15.03;8.20;;;5.40;94.00;;;8.77;52.68;97231.97;5004600;28;20049;-52
2022/11/28 06:56:18;;;;;;;10.93;7.17;;;5.40;93.40;;;8.80;52.80;97242.25;5003478;28;20057;-54
2022/11/28 06:58:52;;;;;;;10.03;7.27;;;5.30;93.30;;;8.80;52.52;97240.47;5003913;28;20046;-53
2022/11/28 07:01:21;;;;;;;10.85;7.30;;;5.40;93.30;;;8.81;52.43;97235.97;5003273;28;20249;-56
2022/11/28 07:03:50;;;;;;;10.00;6.67;;;5.40;92.90;;;8.82;52.32;97238.47;5001923;28;20060;-52
2022/11/28 07:06:19;;;;;;;9.70;6.20;;;5.40;92.90;;;8.83;52.42;97236.66;5002558;28;20042;-56
2022/11/28 07:08:49;;;;;;;13.47;8.57;;;5.40;92.70;;;8.82;52.26;97257.06;5003667;28;20046;-56
2022/11/28 07:11:25;;;;;;;13.87;8.83;;;5.40;92.30;;;8.81;52.02;97275.78;5004578;28;20266;-52
2022/11/28 07:13:54;;;;;;;11.80;7.60;;;5.30;92.00;;;8.78;52.14;97265.47;5004740;28;20064;-55
2022/11/28 07:16:25;;;;;;;11.27;7.60;;;5.30;92.70;;;8.81;52.18;97275.78;5004593;28;20050;-56
2022/11/28 07:18:54;;;;;;;9.23;7.40;;;5.30;92.50;;;8.81;52.09;97266.00;5004361;28;20058;-56
2022/11/28 07:21:22;;;;;;;11.73;7.50;;;5.30;92.20;;;8.83;52.12;97268.50;5003281;28;20050;-56
2022/11/28 07:23:50;;;;;;;11.97;6.50;;;5.40;92.50;;;8.85;52.35;97277.97;5002784;28;20251;-54
2022/11/28 07:26:20;;;;;;;9.87;5.70;;;5.50;92.10;;;8.85;52.18;97279.78;5003120;28;20046;-57
2022/11/28 07:28:50;;;;;;;7.23;4.87;;;5.50;91.60;;;8.90;52.24;97281.94;5004291;28;20046;-54
2022/11/28 07:31:30;;;;;;;9.67;6.43;;;5.60;91.40;;;8.95;52.27;97275.19;5004293;28;20053;-55
2022/11/28 07:34:02;;;;;;;9.03;5.17;;;5.60;91.00;;;8.99;52.03;97281.81;5003079;28;20054;-55
2022/11/28 07:36:31;;;;;;;9.27;5.57;;;5.60;90.70;;;9.00;52.12;97274.72;5003953;28;20046;-54
2022/11/28 07:39:01;;;;;;;7.97;5.40;;;5.70;90.60;;;9.05;51.89;97280.34;5003521;28;20058;-53
2022/11/28 07:41:29;;;;;;;7.67;5.60;;;5.70;90.30;;;9.10;51.81;97270.09;5002999;28;20374;-56
2022/11/28 07:44:00;;;;;;;12.57;7.73;;;5.70;90.30;;;9.14;51.80;97274.09;5002337;28;20336;-54
2022/11/28 07:46:30;;;;;;;14.17;9.00;;;5.70;90.10;;;9.15;51.88;97267.81;5002930;28;20048;-56
2022/11/28 07:48:58;;;;;;;11.57;7.53;;;5.70;90.40;;;9.18;51.89;97275.44;5003889;28;20236;-53
2022/11/28 07:51:31;;;;;;;15.97;9.83;;;5.80;90.50;;;9.23;51.95;97272.31;5003918;28;20042;-55
2022/11/28 07:54:00;;;;;;;13.80;10.37;;;5.90;90.30;;;9.27;51.95;97281.59;5002170;28;20076;-56
2022/11/28 07:56:32;;;;;;;12.23;8.40;;;5.90;90.20;;;9.30;52.20;97275.13;5002678;28;20046;-55
2022/11/28 07:59:20;;;;;;;16.50;10.33;;;6.00;90.40;;;9.33;52.00;97275.66;5003525;28;20050;-55
2022/11/28 08:01:48;;;;;;;17.57;9.17;;;6.00;90.20;;;9.36;52.17;97271.81;5004249;28;20307;-55
2022/11/28 08:04:16;;;;;;;13.47;8.37;;;6.00;90.40;;;9.35;52.18;97265.69;5003095;28;20048;-55
2022/11/28 08:06:44;;;;;;;9.63;5.73;;;6.00;90.40;;;9.37;51.95;97270.84;5003527;28;20042;-55
2022/11/28 08:09:12;;;;;;;8.33;5.80;;;6.00;90.50;;;9.39;52.07;97276.81;5003791;28;20053;-56
2022/11/28 08:11:40;;;;;;;17.23;7.23;;;6.00;90.50;;;9.40;51.99;97273.16;5003325;28;20049;-55
2022/11/28 08:14:08;;;;;;;30.33;18.47;;;6.10;90.50;;;9.41;51.71;97270.34;5003038;28;20050;-53
2022/11/28 08:16:39;;;;;;;12.60;9.40;;;6.00;90.00;;;9.40;51.64;97270.50;5003475;28;20237;-52
2022/11/28 08:19:07;;;;;;;11.93;7.63;;;5.90;91.10;;;9.39;51.71;97276.81;5003215;28;20248;-55
2022/11/28 08:21:36;;;;;;;16.23;9.70;;;6.00;90.00;;;9.39;51.79;97277.66;5002297;28;20144;-54
2022/11/28 08:24:06;;;;;;;13.03;7.83;;;6.00;90.00;;;9.42;51.83;97281.78;5001515;28;20053;-54
2022/11/28 08:26:35;;;;;;;11.27;7.93;;;6.00;89.90;;;9.42;51.77;97282.66;5002262;28;20046;-56
2022/11/28 08:29:03;;;;;;;12.60;6.57;;;6.00;89.20;;;9.39;51.72;97279.47;5002747;28;20042;-54
2022/11/28 08:31:35;;;;;;;10.70;6.83;;;6.00;89.50;;;9.43;51.88;97278.97;5003209;28;20149;-55
2022/11/28 08:34:08;;;;;;;14.10;7.70;;;6.00;90.10;;;9.48;51.54;97278.50;5001648;28;20253;-56
2022/11/28 08:36:36;;;;;;;11.33;7.03;;;6.10;89.60;;;9.52;51.71;97282.50;5002115;28;20046;-55
2022/11/28 08:39:05;;;;;;;10.10;6.03;;;6.10;89.00;;;9.49;51.49;97276.69;5002584;28;20052;-56
2022/11/28 08:41:53;;;;;;;9.30;5.60;;;6.10;88.80;;;9.46;51.32;97270.69;5005912;28;20076;-56
2022/11/28 08:44:20;;;;;;;13.20;6.57;;;6.00;89.50;;;9.48;51.76;97265.22;5002344;28;20052;-54
2022/11/28 08:46:48;;;;;;;12.07;4.67;;;6.10;90.10;;;9.50;51.62;97279.19;5001870;28;20057;-56
2022/11/28 08:49:16;;;;;;;7.87;5.07;;;6.10;90.00;;;9.56;52.09;97272.38;5002959;28;20046;-56
2022/11/28 08:51:44;;;;;;;9.47;6.40;;;6.20;90.10;;;9.64;51.84;97267.06;5001806;28;20052;-54
2022/11/28 08:54:12;;;;;;;12.07;7.70;;;6.30;89.80;;;9.69;51.75;97277.19;5001552;28;20054;-53
2022/11/28 08:56:40;;;;;;;12.10;6.87;;;6.40;89.40;;;9.75;51.60;97284.50;5001463;28;20343;-55
2022/11/28 08:59:08;;;;;;;13.07;6.70;;;6.50;89.10;;;9.83;51.72;97280.03;5002711;28;20046;-54
2022/11/28 09:01:38;;;;;;;7.50;4.53;;;6.60;88.90;;;9.91;51.77;97278.41;5002787;28;20271;-54
2022/11/28 09:04:06;;;;;;;13.83;4.17;;;6.70;88.40;;;9.96;51.63;97276.88;5002135;28;20086;-56
2022/11/28 09:06:35;;;;;;;6.40;4.20;;;6.70;87.20;;;10.03;51.46;97279.72;5002647;28;20057;-55
2022/11/28 09:09:03;;;;;;;6.60;3.73;;;6.80;86.70;;;10.10;51.09;97266.56;5001856;28;20054;-52
2022/11/28 09:11:32;;;;;;;10.00;3.87;;;6.90;86.40;;;10.17;51.13;97270.22;5001681;28;20367;-55
2022/11/28 09:14:00;;;;;;;8.13;4.33;;;6.90;85.70;;;10.27;50.83;97270.03;5001091;28;20049;-54
2022/11/28 09:16:28;;;;;;;5.47;3.50;;;7.00;85.50;;;10.32;51.12;97265.09;5001412;28;20054;-55
2022/11/28 09:18:57;;;;;;;9.47;4.97;;;7.10;85.50;;;10.40;51.34;97270.41;5002550;28;20054;-57
2022/11/28 09:21:25;;;;;;;9.90;5.63;;;7.20;85.60;;;10.45;50.77;97270.72;4985604;28;20426;-53
2022/11/28 09:23:55;;;;;;;17.17;9.07;;;7.20;86.20;;;10.47;51.51;97273.19;5002060;28;20042;-54
2022/11/28 09:26:24;;;;;;;9.90;6.23;;;7.20;86.60;;;10.49;51.14;97279.19;5002283;28;20048;-56
2022/11/28 09:28:52;;;;;;;10.60;6.17;;;7.20;87.30;;;10.50;51.10;97280.84;5017359;28;20050;-55
2022/11/28 09:31:21;;;;;;;14.53;8.53;;;7.20;88.50;;;10.49;51.00;97282.69;5001783;28;20356;-56
2022/11/28 09:33:49;;;;;;;12.53;8.03;;;7.20;87.50;;;10.50;51.06;97289.66;5000977;28;20053;-56
2022/11/28 09:36:20;;;;;;;13.03;7.13;;;7.10;87.90;;;10.51;51.25;97287.84;5002131;28;20053;-54
2022/11/28 09:38:49;;;;;;;13.73;7.33;;;7.10;88.20;;;10.56;51.47;97286.31;5001283;28;20073;-55
2022/11/28 09:41:38;;;;;;;13.50;6.57;;;7.20;88.10;;;10.59;51.56;97287.81;5001524;28;20050;-53
2022/11/28 09:44:24;;;;;;;9.20;5.80;;;7.30;88.00;;;10.62;51.40;97288.31;5002072;28;20368;-56
2022/11/28 09:46:57;;;;;;;10.20;6.70;;;7.30;88.30;;;10.66;51.44;97296.78;5002400;28;20049;-56
2022/11/28 09:49:55;;;;;;;6.90;4.95;;;7.30;87.90;;;10.69;51.46;97291.13;5001093;28;20223;-56
2022/11/28 09:52:56;;;;;;;6.03;4.43;;;7.40;87.30;;;10.74;50.58;97290.59;5004910;28;20042;-56
2022/11/28 09:55:42;;;;;;;6.87;3.57;;;7.50;85.30;;;10.80;50.32;97287.28;5006095;28;20046;-57
2022/11/28 09:58:32;;;;;;;6.83;3.77;;;7.50;84.90;;;10.81;50.47;97284.41;5005005;28;20050;-56
2022/11/28 10:01:18;;;;;;;6.23;3.23;;;7.60;83.50;;;10.86;50.53;97281.25;5005005;28;20046;-52
2022/11/28 10:04:23;;;;;;;4.83;3.47;;;7.70;83.90;;;10.93;50.78;97284.06;5005539;28;20042;-56
2022/11/28 10:06:57;;;;;;;5.70;3.40;;;7.70;83.50;;;11.03;50.59;97264.22;5004439;28;20057;-54
2022/11/28 10:09:41;;;;;;;6.93;5.13;;;7.80;83.40;;;11.12;50.51;97264.16;5005636;28;20288;-53
2022/11/28 10:12:51;;;;;;;6.77;4.50;;;7.90;83.10;;;11.18;50.82;97279.44;5005758;28;20222;-53
2022/11/28 10:15:40;;;;;;;7.17;3.87;;;8.00;82.50;;;11.29;50.22;97270.25;5004653;28;20054;-56
2022/11/28 10:18:29;;;;;;;7.80;4.50;;;8.10;83.70;;;11.36;50.11;97266.72;5004450;28;20046;-55
2022/11/28 10:21:09;;;;;;;4.53;3.10;;;8.20;83.00;;;11.36;49.68;97285.38;5006062;28;20076;-55
2022/11/28 10:23:44;;;;;;;7.97;4.00;;;8.20;81.20;;;11.43;50.18;97282.81;5004217;28;20197;-56
2022/11/28 10:26:34;;;;;;;8.67;4.30;;;8.20;82.50;;;11.50;50.13;97278.47;5003959;28;20053;-56
2022/11/28 10:29:28;;;;;;;5.17;3.40;;;8.40;82.20;;;11.60;50.30;97273.72;5004297;28;20046;-54
2022/11/28 10:32:02;;;;;;;10.70;4.50;;;8.40;82.20;;;11.66;50.40;97271.38;5005263;28;20065;-53
2022/11/28 10:34:31;;;;;;;11.70;5.07;;;8.50;82.70;;;11.70;50.13;97262.00;5003824;28;20064;-55
2022/11/28 10:37:29;;;;;;;17.37;6.60;;;8.50;83.50;;;11.69;50.58;97269.19;5004983;28;20050;-55
2022/11/28 10:40:19;;;;;;;7.70;5.63;;;8.50;84.00;;;11.72;50.57;97259.97;5004259;28;20046;-56
2022/11/28 10:43:29;;;;;;;10.77;6.07;;;8.50;84.00;;;11.71;50.46;97263.63;5005114;28;20042;-54
2022/11/28 10:46:28;;;;;;;7.93;5.40;;;8.50;84.00;;;11.73;50.60;97258.97;5003886;28;20046;-52
2022/11/28 10:49:23;;;;;;;14.30;8.13;;;8.50;84.30;;;11.68;50.71;97254.16;5004155;28;20052;-55
2022/11/28 10:52:02;;;;;;;13.80;6.05;;;8.50;85.00;;;11.67;50.82;97257.84;5004095;28;20351;-53
2022/11/28 10:54:55;;;;;;;10.30;5.97;;;8.50;85.70;;;11.55;51.07;97278.75;5004580;28;20367;-51
2022/11/28 10:57:51;;;;;;;12.03;7.93;;;8.40;85.80;;;11.46;51.39;97266.50;5004975;28;20054;-54
2022/11/28 11:00:19;;;;;;;14.87;6.63;;;8.20;87.80;;;11.54;51.25;97269.09;5003912;28;20046;-53
2022/11/28 11:02:56;;;;;;;9.07;6.53;;;8.20;87.40;;;11.62;51.03;97270.88;5004554;28;20236;-56
2022/11/28 11:05:27;;;;;;;8.40;5.90;;;8.30;87.10;;;11.67;50.91;97267.66;5003223;28;20038;-54